Time;durP1;ratioP1;P1;durP2;ratioP2;P2;SDS_P1;SDS_P2;PMS_P1;PMS_P2;Temp;Humidity;BMP_temperature;BMP_pressure;BME280_temperature;BME280_humidity;BME280_pressure;Samples;Min_cycle;Max_cycle;Signal;HPM_P1;HPM_P2
2021/09/19 00:01:48;;;;;;;0.65;0.30;;;;;;;;;;5048424;28;20100;-66
2021/09/19 00:04:14;;;;;;;0.73;0.30;;;;;;;;;;5048881;28;20719;-66
2021/09/19 00:06:40;;;;;;;0.20;0.20;;;;;;;;;;5047776;28;20029;-66
2021/09/19 00:09:06;;;;;;;0.38;0.30;;;;;;;;;;5064970;28;20491;-66
2021/09/19 00:11:32;;;;;;;0.50;0.30;;;;;;;;;;5066988;28;20511;-66
2021/09/19 00:13:58;;;;;;;0.63;0.30;;;;;;;;;;5068044;28;20036;-66
2021/09/19 00:16:24;;;;;;;0.55;0.30;;;;;;;;;;5068501;28;20024;-66
2021/09/19 00:18:50;;;;;;;0.40;0.30;;;;;;;;;;5068405;28;20107;-66
2021/09/19 00:21:16;;;;;;;0.20;0.20;;;;;;;;;;5069059;28;20032;-66
2021/09/19 00:23:42;;;;;;;0.43;0.25;;;;;;;;;;5067620;28;20028;-66
2021/09/19 00:26:09;;;;;;;0.20;0.20;;;;;;;;;;5068007;28;20056;-67
2021/09/19 00:28:35;;;;;;;0.30;0.30;;;;;;;;;;5081069;28;20020;-66
2021/09/19 00:31:01;;;;;;;0.98;0.28;;;;;;;;;;5068356;28;20444;-66
2021/09/19 00:33:27;;;;;;;0.30;0.30;;;;;;;;;;5068275;28;20078;-67
2021/09/19 00:35:53;;;;;;;1.13;0.35;;;;;;;;;;5068076;28;20479;-67
2021/09/19 00:38:19;;;;;;;0.20;0.20;;;;;;;;;;5067641;28;20465;-67
2021/09/19 00:40:45;;;;;;;0.65;0.35;;;;;;;;;;5067186;28;20025;-67
2021/09/19 00:43:11;;;;;;;0.55;0.40;;;;;;;;;;5068097;28;20699;-66
2021/09/19 00:45:37;;;;;;;0.40;0.30;;;;;;;;;;5067456;28;20478;-66
2021/09/19 00:48:03;;;;;;;0.40;0.30;;;;;;;;;;5067556;28;20511;-65
2021/09/19 00:50:29;;;;;;;2.13;0.20;;;;;;;;;;5067126;28;20063;-66
2021/09/19 00:52:55;;;;;;;0.40;0.40;;;;;;;;;;5068095;28;20070;-66
2021/09/19 00:55:21;;;;;;;0.47;0.40;;;;;;;;;;5066976;28;20025;-65
2021/09/19 00:57:49;;;;;;;0.25;0.25;;;;;;;;;;5069153;28;20029;-66
2021/09/19 01:00:20;;;;;;;0.38;0.20;;;;;;;;;;5068082;28;20020;-66
2021/09/19 01:02:46;;;;;;;0.20;0.20;;;;;;;;;;5066838;28;20024;-66
2021/09/19 01:05:13;;;;;;;0.45;0.30;;;;;;;;;;5058009;28;20032;-66
2021/09/19 01:07:40;;;;;;;1.02;0.30;;;;;;;;;;5079914;28;20020;-66
2021/09/19 01:10:07;;;;;;;0.25;0.25;;;;;;;;;;5068121;28;20085;-66
2021/09/19 01:12:33;;;;;;;0.73;0.32;;;;;;;;;;5049175;28;20021;-65
2021/09/19 01:15:00;;;;;;;0.80;0.35;;;;;;;;;;5067672;28;20033;-65
2021/09/19 01:17:26;;;;;;;0.45;0.30;;;;;;;;;;5066074;28;20021;-66
2021/09/19 01:19:55;;;;;;;2.45;0.25;;;;;;;;;;5067305;28;20032;-67
2021/09/19 01:22:29;;;;;;;1.45;0.30;;;;;;;;;;5075996;28;20012;-67
2021/09/19 01:24:55;;;;;;;0.38;0.25;;;;;;;;;;5087498;28;20541;-66
2021/09/19 01:27:21;;;;;;;0.80;0.20;;;;;;;;;;5084800;28;20070;-66
2021/09/19 01:29:47;;;;;;;1.35;0.55;;;;;;;;;;5068022;28;20032;-67
2021/09/19 01:32:18;;;;;;;0.43;0.20;;;;;;;;;;5065134;28;20705;-66
2021/09/19 01:34:44;;;;;;;0.77;0.30;;;;;;;;;;5065185;28;20055;-66
2021/09/19 01:37:10;;;;;;;0.60;0.30;;;;;;;;;;5078880;28;20035;-66
2021/09/19 01:39:36;;;;;;;0.28;0.28;;;;;;;;;;5082512;28;20469;-66
2021/09/19 01:42:02;;;;;;;0.20;0.20;;;;;;;;;;5082938;28;20040;-65
2021/09/19 01:44:28;;;;;;;0.20;0.20;;;;;;;;;;5065416;28;20037;-65
2021/09/19 01:46:54;;;;;;;0.20;0.20;;;;;;;;;;5066250;28;20025;-65
2021/09/19 01:49:20;;;;;;;0.28;0.28;;;;;;;;;;5067761;28;20531;-65
2021/09/19 01:51:47;;;;;;;0.30;0.22;;;;;;;;;;5069776;28;20423;-65
2021/09/19 01:54:13;;;;;;;0.20;0.20;;;;;;;;;;5069298;28;20082;-64
2021/09/19 01:56:39;;;;;;;0.20;0.20;;;;;;;;;;5071779;28;20026;-65
2021/09/19 01:59:05;;;;;;;0.77;0.32;;;;;;;;;;5074581;28;20426;-65
2021/09/19 02:01:31;;;;;;;0.20;0.20;;;;;;;;;;5069075;28;20488;-65
2021/09/19 02:03:58;;;;;;;0.30;0.30;;;;;;;;;;5068853;28;20098;-65
2021/09/19 02:06:24;;;;;;;0.20;0.20;;;;;;;;;;5068649;28;20043;-65
2021/09/19 02:08:50;;;;;;;0.20;0.20;;;;;;;;;;5069170;28;20033;-65
2021/09/19 02:11:17;;;;;;;0.20;0.20;;;;;;;;;;5069686;28;20068;-65
2021/09/19 02:13:44;;;;;;;0.20;0.20;;;;;;;;;;5068541;28;20036;-65
2021/09/19 02:16:10;;;;;;;0.20;0.20;;;;;;;;;;5072260;28;20435;-65
2021/09/19 02:18:36;;;;;;;0.28;0.20;;;;;;;;;;5078310;28;20074;-65
2021/09/19 02:21:04;;;;;;;0.20;0.20;;;;;;;;;;5069152;28;20031;-65
2021/09/19 02:23:30;;;;;;;0.20;0.20;;;;;;;;;;5068600;28;20051;-65
2021/09/19 02:25:56;;;;;;;0.20;0.20;;;;;;;;;;5069539;28;20055;-65
2021/09/19 02:28:22;;;;;;;0.28;0.28;;;;;;;;;;5080407;28;20546;-65
2021/09/19 02:30:49;;;;;;;1.85;0.20;;;;;;;;;;5069292;28;20573;-65
2021/09/19 02:33:16;;;;;;;0.30;0.30;;;;;;;;;;5068780;28;20029;-66
2021/09/19 02:35:42;;;;;;;1.23;0.50;;;;;;;;;;5050427;28;20805;-65
2021/09/19 02:38:08;;;;;;;0.25;0.20;;;;;;;;;;5068096;28;20020;-65
2021/09/19 02:40:34;;;;;;;0.30;0.30;;;;;;;;;;5068486;28;20032;-64
2021/09/19 02:43:01;;;;;;;0.25;0.25;;;;;;;;;;5068351;28;20028;-64
2021/09/19 02:45:27;;;;;;;0.47;0.30;;;;;;;;;;5068035;28;20041;-64
2021/09/19 02:47:53;;;;;;;0.30;0.30;;;;;;;;;;5070659;28;20036;-65
2021/09/19 02:50:20;;;;;;;0.40;0.30;;;;;;;;;;5089258;28;20051;-64
2021/09/19 02:52:47;;;;;;;0.20;0.20;;;;;;;;;;5089197;28;20024;-64
2021/09/19 02:55:15;;;;;;;0.30;0.30;;;;;;;;;;5088559;28;20105;-64
2021/09/19 02:57:41;;;;;;;0.38;0.30;;;;;;;;;;5086014;28;20616;-64
2021/09/19 03:00:09;;;;;;;0.63;0.30;;;;;;;;;;5087306;28;20028;-64
2021/09/19 03:02:35;;;;;;;0.73;0.30;;;;;;;;;;5087786;28;20081;-64
2021/09/19 03:05:01;;;;;;;1.25;0.25;;;;;;;;;;5088518;28;20054;-65
2021/09/19 03:07:27;;;;;;;0.25;0.20;;;;;;;;;;5088211;28;20063;-65
2021/09/19 03:09:53;;;;;;;0.20;0.20;;;;;;;;;;5067882;28;20137;-65
2021/09/19 03:12:19;;;;;;;0.65;0.30;;;;;;;;;;5068683;28;20565;-65
2021/09/19 03:14:45;;;;;;;0.20;0.20;;;;;;;;;;5067693;28;20490;-65
2021/09/19 03:17:11;;;;;;;0.30;0.30;;;;;;;;;;5068160;28;20103;-64
2021/09/19 03:19:38;;;;;;;0.30;0.30;;;;;;;;;;5067301;28;20648;-64
2021/09/19 03:22:04;;;;;;;0.20;0.20;;;;;;;;;;5067732;28;20023;-65
2021/09/19 03:24:30;;;;;;;0.20;0.20;;;;;;;;;;5071827;28;20036;-65
2021/09/19 03:26:56;;;;;;;0.20;0.20;;;;;;;;;;5087780;28;20550;-65
2021/09/19 03:29:22;;;;;;;0.30;0.30;;;;;;;;;;5071907;28;20036;-66
2021/09/19 03:31:48;;;;;;;0.32;0.30;;;;;;;;;;5068328;28;20024;-66
2021/09/19 03:34:14;;;;;;;0.52;0.30;;;;;;;;;;5067870;28;20082;-66
2021/09/19 03:36:40;;;;;;;0.38;0.30;;;;;;;;;;5067221;28;20021;-66
2021/09/19 03:39:06;;;;;;;0.28;0.28;;;;;;;;;;5059477;28;20426;-66
2021/09/19 03:41:32;;;;;;;0.17;0.15;;;;;;;;;;5086703;28;20081;-66
2021/09/19 03:43:59;;;;;;;0.30;0.30;;;;;;;;;;5087794;28;20525;-66
2021/09/19 03:46:28;;;;;;;0.47;0.20;;;;;;;;;;5087549;28;20073;-66
2021/09/19 03:48:54;;;;;;;0.20;0.20;;;;;;;;;;5076305;28;20511;-66
2021/09/19 03:51:21;;;;;;;0.88;0.30;;;;;;;;;;5067893;28;20040;-66
2021/09/19 03:53:48;;;;;;;0.28;0.28;;;;;;;;;;5067806;28;20021;-66
2021/09/19 03:56:14;;;;;;;0.22;0.20;;;;;;;;;;5070595;28;20126;-66
2021/09/19 03:58:40;;;;;;;0.20;0.20;;;;;;;;;;5078184;28;20077;-66
2021/09/19 04:01:06;;;;;;;0.20;0.20;;;;;;;;;;5067199;28;20024;-66
2021/09/19 04:03:32;;;;;;;0.20;0.20;;;;;;;;;;5066618;28;20028;-66
2021/09/19 04:05:59;;;;;;;0.43;0.20;;;;;;;;;;5066876;28;20025;-66
2021/09/19 04:08:25;;;;;;;0.20;0.20;;;;;;;;;;5066259;28;20021;-66
2021/09/19 04:10:51;;;;;;;0.28;0.22;;;;;;;;;;5067255;28;20020;-67
2021/09/19 04:13:17;;;;;;;0.40;0.40;;;;;;;;;;5067361;28;20028;-66
2021/09/19 04:15:43;;;;;;;0.35;0.20;;;;;;;;;;5066825;28;20403;-67
2021/09/19 04:18:09;;;;;;;0.20;0.20;;;;;;;;;;5079792;28;20098;-67
2021/09/19 04:20:35;;;;;;;0.10;0.10;;;;;;;;;;5085257;28;20396;-67
2021/09/19 04:23:01;;;;;;;0.13;0.13;;;;;;;;;;5087030;28;20024;-67
2021/09/19 04:25:27;;;;;;;0.20;0.20;;;;;;;;;;5086868;28;20056;-67
2021/09/19 04:27:53;;;;;;;0.20;0.20;;;;;;;;;;5085572;28;20524;-67
2021/09/19 04:30:19;;;;;;;0.20;0.20;;;;;;;;;;5069493;28;20025;-67
2021/09/19 04:32:46;;;;;;;0.20;0.20;;;;;;;;;;5085894;28;20036;-67
2021/09/19 04:35:12;;;;;;;0.82;0.30;;;;;;;;;;5086825;28;20609;-67
2021/09/19 04:37:38;;;;;;;0.45;0.30;;;;;;;;;;5085085;28;20119;-67
2021/09/19 04:40:05;;;;;;;0.40;0.20;;;;;;;;;;5066521;28;20024;-67
2021/09/19 04:42:31;;;;;;;0.10;0.10;;;;;;;;;;5065656;28;20379;-67
2021/09/19 04:44:57;;;;;;;0.20;0.20;;;;;;;;;;5066637;28;20725;-66
2021/09/19 04:47:23;;;;;;;0.20;0.20;;;;;;;;;;5066473;28;20094;-66
2021/09/19 04:49:49;;;;;;;0.45;0.22;;;;;;;;;;5066906;28;20027;-66
2021/09/19 04:52:16;;;;;;;0.20;0.20;;;;;;;;;;5066082;28;20437;-66
2021/09/19 04:54:42;;;;;;;0.30;0.30;;;;;;;;;;5074027;28;20032;-66
2021/09/19 04:57:08;;;;;;;0.10;0.10;;;;;;;;;;5079038;28;20477;-66
2021/09/19 04:59:35;;;;;;;0.30;0.28;;;;;;;;;;5066296;28;20017;-66
2021/09/19 05:02:01;;;;;;;0.28;0.28;;;;;;;;;;5065049;28;20013;-67
2021/09/19 05:04:27;;;;;;;0.20;0.20;;;;;;;;;;5065761;28;20028;-67
2021/09/19 05:06:53;;;;;;;0.20;0.20;;;;;;;;;;5065927;28;20437;-67
2021/09/19 05:09:19;;;;;;;0.30;0.20;;;;;;;;;;5066666;28;20387;-67
2021/09/19 05:11:45;;;;;;;0.30;0.30;;;;;;;;;;5066427;28;20032;-67
2021/09/19 05:14:12;;;;;;;0.30;0.30;;;;;;;;;;5082963;28;20021;-67
2021/09/19 05:16:39;;;;;;;0.30;0.30;;;;;;;;;;5085778;28;20157;-67
2021/09/19 05:19:05;;;;;;;0.30;0.30;;;;;;;;;;5086094;28;20020;-66
2021/09/19 05:21:31;;;;;;;0.77;0.32;;;;;;;;;;5084844;28;20260;-67
2021/09/19 05:23:57;;;;;;;0.22;0.20;;;;;;;;;;5069039;28;20235;-67
2021/09/19 05:26:23;;;;;;;0.80;0.40;;;;;;;;;;5068331;28;20063;-67
2021/09/19 05:28:50;;;;;;;0.30;0.30;;;;;;;;;;5068841;28;20029;-67
2021/09/19 05:31:16;;;;;;;0.20;0.20;;;;;;;;;;5083079;28;20028;-67
2021/09/19 05:33:44;;;;;;;0.20;0.20;;;;;;;;;;5088180;28;20535;-67
2021/09/19 05:36:11;;;;;;;0.95;0.45;;;;;;;;;;5088486;28;20111;-68
2021/09/19 05:38:37;;;;;;;0.55;0.55;;;;;;;;;;5088055;28;20016;-67
2021/09/19 05:41:03;;;;;;;0.40;0.40;;;;;;;;;;5072967;28;20122;-67
2021/09/19 05:43:29;;;;;;;0.20;0.20;;;;;;;;;;5068010;28;20032;-66
2021/09/19 05:45:56;;;;;;;0.45;0.30;;;;;;;;;;5068013;28;20024;-67
2021/09/19 05:48:22;;;;;;;0.20;0.20;;;;;;;;;;5067640;28;20055;-67
2021/09/19 05:50:48;;;;;;;1.25;0.35;;;;;;;;;;5068632;28;20147;-66
2021/09/19 05:53:14;;;;;;;0.30;0.30;;;;;;;;;;5089941;28;20056;-66
2021/09/19 05:55:40;;;;;;;0.20;0.20;;;;;;;;;;5066633;28;20569;-66
2021/09/19 05:58:06;;;;;;;0.30;0.30;;;;;;;;;;5067575;28;20152;-66
2021/09/19 06:00:32;;;;;;;0.28;0.28;;;;;;;;;;5066007;28;20127;-66
2021/09/19 06:02:58;;;;;;;0.20;0.20;;;;;;;;;;5068862;28;20033;-66
2021/09/19 06:05:24;;;;;;;0.20;0.20;;;;;;;;;;5079419;28;20024;-66
2021/09/19 06:07:50;;;;;;;0.20;0.20;;;;;;;;;;5090105;28;20105;-66
2021/09/19 06:10:16;;;;;;;0.28;0.20;;;;;;;;;;5089998;28;20056;-66
2021/09/19 06:12:42;;;;;;;0.30;0.20;;;;;;;;;;5088919;28;20450;-66
2021/09/19 06:15:09;;;;;;;0.32;0.20;;;;;;;;;;5068964;28;20098;-66
2021/09/19 06:17:35;;;;;;;0.35;0.25;;;;;;;;;;5068972;28;20456;-66
2021/09/19 06:20:01;;;;;;;0.20;0.20;;;;;;;;;;5071665;28;20047;-66
2021/09/19 06:22:27;;;;;;;0.30;0.30;;;;;;;;;;5088941;28;20030;-66
2021/09/19 06:24:54;;;;;;;0.20;0.20;;;;;;;;;;5075060;28;20024;-67
2021/09/19 06:27:20;;;;;;;0.10;0.10;;;;;;;;;;5089614;28;20030;-67
2021/09/19 06:29:46;;;;;;;0.45;0.30;;;;;;;;;;5089111;28;20106;-67
2021/09/19 06:32:12;;;;;;;0.30;0.30;;;;;;;;;;5078093;28;20032;-67
2021/09/19 06:34:39;;;;;;;0.20;0.20;;;;;;;;;;5078955;28;20535;-67
2021/09/19 06:37:06;;;;;;;0.20;0.20;;;;;;;;;;5068869;28;20111;-68
2021/09/19 06:39:32;;;;;;;0.22;0.22;;;;;;;;;;5067258;28;20089;-67
2021/09/19 06:41:58;;;;;;;0.10;0.10;;;;;;;;;;5067517;28;20032;-67
2021/09/19 06:44:24;;;;;;;0.30;0.30;;;;;;;;;;5081176;28;20456;-67
2021/09/19 06:46:53;;;;;;;0.20;0.20;;;;;;;;;;5087750;28;20534;-67
2021/09/19 06:49:19;;;;;;;0.30;0.30;;;;;;;;;;5085573;28;20020;-67
2021/09/19 06:51:46;;;;;;;0.30;0.30;;;;;;;;;;5086379;28;20502;-67
2021/09/19 06:54:12;;;;;;;0.20;0.20;;;;;;;;;;5083940;28;20032;-67
2021/09/19 06:56:39;;;;;;;0.40;0.30;;;;;;;;;;5067198;28;20024;-67
2021/09/19 06:59:06;;;;;;;0.20;0.20;;;;;;;;;;5066427;28;20035;-67
2021/09/19 07:01:32;;;;;;;0.10;0.10;;;;;;;;;;5066812;28;20025;-66
2021/09/19 07:03:58;;;;;;;0.20;0.20;;;;;;;;;;5066066;28;20031;-70
2021/09/19 07:06:24;;;;;;;0.20;0.20;;;;;;;;;;5066529;28;20056;-67
2021/09/19 07:08:50;;;;;;;0.25;0.25;;;;;;;;;;5066659;28;20036;-66
2021/09/19 07:11:16;;;;;;;0.20;0.20;;;;;;;;;;5064955;28;20457;-64
2021/09/19 07:13:42;;;;;;;0.20;0.20;;;;;;;;;;5084261;28;20042;-66
2021/09/19 07:16:09;;;;;;;0.30;0.30;;;;;;;;;;5086568;28;20024;-67
2021/09/19 07:18:35;;;;;;;0.80;0.30;;;;;;;;;;5082364;28;20348;-65
2021/09/19 07:21:02;;;;;;;0.30;0.30;;;;;;;;;;5066872;28;20021;-65
2021/09/19 07:23:28;;;;;;;0.55;0.30;;;;;;;;;;5066105;28;20056;-66
2021/09/19 07:25:54;;;;;;;0.52;0.30;;;;;;;;;;5066369;28;20048;-66
2021/09/19 07:28:20;;;;;;;0.20;0.20;;;;;;;;;;5065808;28;20029;-66
2021/09/19 07:30:46;;;;;;;0.73;0.20;;;;;;;;;;5066142;28;20021;-66
2021/09/19 07:33:12;;;;;;;0.30;0.30;;;;;;;;;;5065136;28;20043;-66
2021/09/19 07:35:39;;;;;;;0.30;0.30;;;;;;;;;;5080186;28;20081;-66
2021/09/19 07:38:06;;;;;;;0.20;0.20;;;;;;;;;;5086237;28;20024;-67
2021/09/19 07:40:32;;;;;;;0.30;0.30;;;;;;;;;;5086137;28;20040;-67
2021/09/19 07:42:59;;;;;;;0.20;0.20;;;;;;;;;;5072272;28;20070;-66
2021/09/19 07:45:26;;;;;;;0.88;0.30;;;;;;;;;;5067053;28;20024;-67
2021/09/19 07:47:53;;;;;;;0.35;0.30;;;;;;;;;;5067107;28;20032;-67
2021/09/19 07:50:19;;;;;;;0.30;0.30;;;;;;;;;;5070443;28;20106;-67
2021/09/19 07:52:46;;;;;;;0.47;0.32;;;;;;;;;;5068499;28;20116;-66
2021/09/19 07:55:15;;;;;;;0.73;0.35;;;;;;;;;;5068647;28;20025;-66
2021/09/19 07:57:41;;;;;;;0.52;0.30;;;;;;;;;;5066441;28;20943;-66
2021/09/19 08:00:07;;;;;;;0.38;0.38;;;;;;;;;;5065240;28;20560;-66
2021/09/19 08:02:34;;;;;;;0.30;0.30;;;;;;;;;;5065950;28;20050;-67
2021/09/19 08:05:00;;;;;;;0.93;0.40;;;;;;;;;;5078546;28;20028;-67
2021/09/19 08:07:26;;;;;;;0.35;0.30;;;;;;;;;;5086964;28;20031;-65
2021/09/19 08:09:52;;;;;;;0.28;0.28;;;;;;;;;;5087038;28;20425;-65
2021/09/19 08:12:18;;;;;;;0.30;0.30;;;;;;;;;;5081081;28;20623;-65
2021/09/19 08:14:44;;;;;;;0.50;0.35;;;;;;;;;;5068547;28;20032;-66
2021/09/19 08:17:11;;;;;;;0.32;0.32;;;;;;;;;;5066659;28;20035;-65
2021/09/19 08:19:37;;;;;;;0.38;0.38;;;;;;;;;;5074009;28;20376;-66
2021/09/19 08:22:03;;;;;;;1.17;0.45;;;;;;;;;;5085819;28;20035;-66
2021/09/19 08:24:29;;;;;;;0.30;0.30;;;;;;;;;;5073652;28;20056;-66
2021/09/19 08:26:55;;;;;;;0.30;0.30;;;;;;;;;;5066179;28;20025;-66
2021/09/19 08:29:22;;;;;;;0.38;0.38;;;;;;;;;;5070788;28;20028;-66
2021/09/19 08:31:48;;;;;;;0.30;0.30;;;;;;;;;;5067885;28;20060;-64
2021/09/19 08:34:15;;;;;;;0.30;0.30;;;;;;;;;;5065057;28;20081;-64
2021/09/19 08:36:41;;;;;;;0.40;0.40;;;;;;;;;;5065675;28;20032;-64
2021/09/19 08:39:08;;;;;;;0.30;0.30;;;;;;;;;;5066402;28;20092;-63
2021/09/19 08:41:34;;;;;;;0.40;0.40;;;;;;;;;;5084058;28;20028;-60
2021/09/19 08:44:00;;;;;;;0.40;0.40;;;;;;;;;;5066864;28;20390;-62
2021/09/19 08:46:26;;;;;;;0.43;0.40;;;;;;;;;;5066169;28;20047;-62
2021/09/19 08:48:52;;;;;;;0.40;0.40;;;;;;;;;;5085849;28;20028;-62
2021/09/19 08:51:19;;;;;;;0.30;0.30;;;;;;;;;;5085536;28;20123;-63
2021/09/19 08:53:46;;;;;;;0.40;0.30;;;;;;;;;;5070938;28;20099;-62
2021/09/19 08:56:12;;;;;;;0.38;0.38;;;;;;;;;;5078313;28;20369;-62
2021/09/19 08:58:38;;;;;;;0.28;0.28;;;;;;;;;;5066942;28;20032;-62
2021/09/19 09:01:05;;;;;;;0.30;0.30;;;;;;;;;;5080122;28;20026;-61
2021/09/19 09:03:31;;;;;;;0.40;0.40;;;;;;;;;;5085171;28;20560;-62
2021/09/19 09:06:02;;;;;;;0.47;0.47;;;;;;;;;;5078157;28;20904;-62
2021/09/19 09:08:28;;;;;;;0.52;0.35;;;;;;;;;;5071297;28;20029;-62
2021/09/19 09:10:55;;;;;;;0.30;0.30;;;;;;;;;;5065511;28;20055;-65
2021/09/19 09:13:26;;;;;;;0.50;0.40;;;;;;;;;;5069436;28;20082;-62
2021/09/19 09:15:53;;;;;;;0.90;0.40;;;;;;;;;;5078366;28;20024;-62
2021/09/19 09:18:45;;;;;;;0.40;0.40;;;;;;;;;;5078585;28;20031;-62
2021/09/19 09:21:18;;;;;;;0.70;0.55;;;;;;;;;;5066145;28;20044;-62
2021/09/19 09:23:45;;;;;;;1.42;0.55;;;;;;;;;;5065198;28;20017;-62
2021/09/19 09:26:16;;;;;;;0.30;0.30;;;;;;;;;;5065629;28;20025;-63
2021/09/19 09:28:42;;;;;;;0.30;0.30;;;;;;;;;;5072390;28;20028;-62
2021/09/19 09:31:09;;;;;;;0.40;0.40;;;;;;;;;;5065415;28;20569;-62
2021/09/19 09:33:35;;;;;;;0.30;0.30;;;;;;;;;;5070355;28;20023;-62
2021/09/19 09:36:08;;;;;;;0.20;0.20;;;;;;;;;;5074858;28;20052;-62
2021/09/19 09:38:34;;;;;;;0.30;0.30;;;;;;;;;;5063265;28;21031;-62
2021/09/19 09:41:01;;;;;;;0.75;0.45;;;;;;;;;;5060995;28;20071;-63
2021/09/19 09:43:27;;;;;;;0.20;0.20;;;;;;;;;;5060678;28;20063;-62
2021/09/19 09:45:53;;;;;;;0.50;0.20;;;;;;;;;;5053715;28;20492;-62
2021/09/19 09:48:31;;;;;;;0.20;0.20;;;;;;;;;;5060504;28;20074;-62
2021/09/19 09:50:58;;;;;;;0.30;0.30;;;;;;;;;;5065383;28;20138;-62
2021/09/19 09:53:24;;;;;;;0.32;0.32;;;;;;;;;;5071116;28;20028;-62
2021/09/19 09:55:51;;;;;;;0.20;0.20;;;;;;;;;;5063688;28;20052;-62
2021/09/19 09:58:18;;;;;;;0.20;0.20;;;;;;;;;;5065073;28;20032;-62
2021/09/19 10:00:49;;;;;;;0.20;0.20;;;;;;;;;;5065880;28;20146;-62
2021/09/19 10:03:16;;;;;;;0.20;0.20;;;;;;;;;;5062072;28;20075;-63
2021/09/19 10:05:43;;;;;;;0.30;0.20;;;;;;;;;;5065694;28;20063;-62
2021/09/19 10:08:09;;;;;;;0.20;0.20;;;;;;;;;;5064961;28;20063;-62
2021/09/19 10:10:40;;;;;;;0.52;0.30;;;;;;;;;;5071914;28;20034;-61
2021/09/19 10:13:07;;;;;;;0.85;0.30;;;;;;;;;;5078122;28;20405;-61
2021/09/19 10:15:33;;;;;;;0.55;0.30;;;;;;;;;;5088254;28;20036;-61
2021/09/19 10:18:00;;;;;;;0.32;0.30;;;;;;;;;;5089244;28;20095;-61
2021/09/19 10:20:28;;;;;;;0.30;0.30;;;;;;;;;;5087876;28;20494;-61
2021/09/19 10:22:57;;;;;;;0.30;0.30;;;;;;;;;;5079007;28;20032;-64
2021/09/19 10:25:23;;;;;;;0.20;0.20;;;;;;;;;;5068433;28;20059;-59
2021/09/19 10:27:49;;;;;;;0.20;0.20;;;;;;;;;;5063285;28;20044;-62
2021/09/19 10:30:18;;;;;;;0.30;0.30;;;;;;;;;;5061711;28;20100;-62
2021/09/19 10:32:44;;;;;;;0.47;0.30;;;;;;;;;;5067637;28;20032;-62
2021/09/19 10:35:23;;;;;;;0.20;0.20;;;;;;;;;;5069761;28;20027;-62
2021/09/19 10:37:53;;;;;;;0.20;0.20;;;;;;;;;;5073951;28;20037;-62
2021/09/19 10:40:38;;;;;;;0.20;0.20;;;;;;;;;;5056452;28;20036;-62
2021/09/19 10:43:07;;;;;;;0.22;0.22;;;;;;;;;;5067460;28;20099;-63
2021/09/19 10:45:38;;;;;;;0.63;0.32;;;;;;;;;;5067354;28;20040;-61
2021/09/19 10:48:26;;;;;;;0.30;0.30;;;;;;;;;;5067518;28;20068;-60
2021/09/19 10:51:01;;;;;;;0.40;0.30;;;;;;;;;;5073916;28;20160;-61
2021/09/19 10:53:27;;;;;;;0.30;0.30;;;;;;;;;;5062230;28;20025;-61
2021/09/19 10:55:58;;;;;;;0.20;0.20;;;;;;;;;;5067263;28;20039;-61
2021/09/19 10:58:31;;;;;;;0.20;0.20;;;;;;;;;;5067896;28;20023;-61
2021/09/19 11:01:11;;;;;;;0.30;0.30;;;;;;;;;;5066731;28;20039;-60
2021/09/19 11:03:38;;;;;;;0.43;0.30;;;;;;;;;;5060302;28;20029;-61
2021/09/19 11:06:04;;;;;;;0.22;0.20;;;;;;;;;;5064875;28;20017;-61
2021/09/19 11:08:38;;;;;;;0.20;0.20;;;;;;;;;;5067614;28;20030;-61
2021/09/19 11:11:06;;;;;;;0.20;0.20;;;;;;;;;;5058369;28;20079;-61
2021/09/19 11:13:36;;;;;;;0.43;0.30;;;;;;;;;;5053804;28;20039;-61
2021/09/19 11:16:05;;;;;;;0.20;0.20;;;;;;;;;;5067527;28;20017;-61
2021/09/19 11:18:31;;;;;;;0.40;0.40;;;;;;;;;;5067602;28;20029;-61
2021/09/19 11:21:12;;;;;;;0.45;0.30;;;;;;;;;;5074292;28;20078;-61
2021/09/19 11:23:42;;;;;;;0.30;0.30;;;;;;;;;;5067299;28;20140;-61
2021/09/19 11:26:09;;;;;;;0.20;0.20;;;;;;;;;;5064514;28;20028;-61
2021/09/19 11:28:36;;;;;;;0.32;0.32;;;;;;;;;;5061318;28;20470;-61
2021/09/19 11:31:03;;;;;;;0.20;0.20;;;;;;;;;;5065959;28;20036;-61
2021/09/19 11:33:31;;;;;;;0.43;0.43;;;;;;;;;;5067255;28;20040;-61
2021/09/19 11:36:03;;;;;;;0.47;0.47;;;;;;;;;;5066262;28;20051;-61
2021/09/19 11:38:34;;;;;;;0.60;0.60;;;;;;;;;;5062668;28;20023;-60
2021/09/19 11:41:01;;;;;;;0.30;0.30;;;;;;;;;;5074453;28;20028;-60
2021/09/19 11:43:27;;;;;;;0.40;0.40;;;;;;;;;;5066400;28;20029;-60
2021/09/19 11:45:54;;;;;;;0.32;0.22;;;;;;;;;;5066760;28;20036;-60
2021/09/19 11:48:20;;;;;;;0.30;0.30;;;;;;;;;;5062432;28;20048;-62
2021/09/19 11:50:48;;;;;;;0.30;0.30;;;;;;;;;;5067686;28;20028;-56
2021/09/19 11:53:15;;;;;;;0.28;0.28;;;;;;;;;;5074132;28;20040;-56
2021/09/19 11:55:44;;;;;;;0.30;0.30;;;;;;;;;;5065026;28;20037;-56
2021/09/19 11:58:14;;;;;;;0.32;0.30;;;;;;;;;;5066823;28;20048;-56
2021/09/19 12:00:40;;;;;;;0.22;0.22;;;;;;;;;;5073642;28;20360;-56
2021/09/19 12:03:07;;;;;;;0.30;0.30;;;;;;;;;;5059930;28;20050;-57
2021/09/19 12:05:33;;;;;;;0.30;0.30;;;;;;;;;;5076327;28;20040;-57
2021/09/19 12:07:59;;;;;;;0.30;0.30;;;;;;;;;;5065906;28;20028;-57
2021/09/19 12:10:26;;;;;;;0.20;0.20;;;;;;;;;;5064804;28;20024;-58
2021/09/19 12:12:53;;;;;;;0.22;0.22;;;;;;;;;;5066010;28;20035;-58
2021/09/19 12:15:29;;;;;;;0.30;0.30;;;;;;;;;;5064444;28;20040;-59
2021/09/19 12:18:13;;;;;;;0.40;0.40;;;;;;;;;;5063104;28;20035;-58
2021/09/19 12:20:55;;;;;;;0.65;0.30;;;;;;;;;;5065774;28;20036;-58
2021/09/19 12:23:22;;;;;;;0.20;0.20;;;;;;;;;;5065571;28;20063;-58
2021/09/19 12:25:49;;;;;;;0.40;0.32;;;;;;;;;;5065468;28;20040;-58
2021/09/19 12:28:32;;;;;;;0.20;0.20;;;;;;;;;;5072187;28;20103;-58
2021/09/19 12:30:58;;;;;;;0.20;0.20;;;;;;;;;;5079055;28;20056;-57
2021/09/19 12:33:24;;;;;;;0.32;0.30;;;;;;;;;;5084604;28;20091;-58
2021/09/19 12:35:50;;;;;;;0.20;0.20;;;;;;;;;;5065772;28;20105;-58
2021/09/19 12:38:17;;;;;;;0.20;0.20;;;;;;;;;;5075157;28;20484;-58
2021/09/19 12:40:43;;;;;;;1.10;0.38;;;;;;;;;;5066789;28;20025;-57
2021/09/19 12:43:14;;;;;;;0.28;0.28;;;;;;;;;;5053382;28;20439;-58
2021/09/19 12:45:46;;;;;;;0.50;0.30;;;;;;;;;;5064166;28;20560;-57
2021/09/19 12:48:13;;;;;;;0.30;0.30;;;;;;;;;;5071047;28;20040;-58
2021/09/19 12:50:39;;;;;;;0.20;0.20;;;;;;;;;;5056285;28;20032;-57
2021/09/19 12:53:05;;;;;;;0.40;0.40;;;;;;;;;;5065289;28;20024;-58
2021/09/19 12:55:32;;;;;;;0.28;0.28;;;;;;;;;;5051045;28;20419;-58
2021/09/19 12:57:59;;;;;;;0.20;0.20;;;;;;;;;;5060414;28;20388;-58
2021/09/19 13:00:27;;;;;;;0.30;0.30;;;;;;;;;;5065219;28;20028;-57
2021/09/19 13:03:00;;;;;;;0.32;0.30;;;;;;;;;;5065378;28;20376;-58
2021/09/19 13:05:26;;;;;;;0.30;0.30;;;;;;;;;;5065748;28;20024;-57
2021/09/19 13:07:52;;;;;;;0.28;0.28;;;;;;;;;;5065824;28;20111;-57
2021/09/19 13:10:19;;;;;;;0.20;0.20;;;;;;;;;;5065011;28;20576;-57
2021/09/19 13:12:45;;;;;;;0.30;0.30;;;;;;;;;;5066318;28;20387;-58
2021/09/19 13:15:11;;;;;;;0.30;0.30;;;;;;;;;;5065602;28;20028;-58
2021/09/19 13:17:37;;;;;;;0.70;0.40;;;;;;;;;;5065023;28;20025;-58
2021/09/19 13:20:03;;;;;;;0.32;0.30;;;;;;;;;;5065733;28;20499;-57
2021/09/19 13:22:29;;;;;;;0.28;0.28;;;;;;;;;;5067912;28;20055;-58
2021/09/19 13:24:56;;;;;;;0.30;0.30;;;;;;;;;;5085830;28;20032;-59
2021/09/19 13:27:23;;;;;;;0.30;0.30;;;;;;;;;;5085665;28;20149;-58
2021/09/19 13:29:49;;;;;;;0.45;0.30;;;;;;;;;;5069815;28;20044;-58
2021/09/19 13:32:15;;;;;;;0.65;0.30;;;;;;;;;;5065249;28;20035;-58
2021/09/19 13:34:41;;;;;;;0.20;0.20;;;;;;;;;;5048168;28;20612;-58
2021/09/19 13:37:07;;;;;;;0.25;0.20;;;;;;;;;;5050715;28;20103;-58
2021/09/19 13:39:34;;;;;;;0.20;0.20;;;;;;;;;;5064951;28;20039;-57
2021/09/19 13:42:00;;;;;;;0.20;0.20;;;;;;;;;;5065383;28;20429;-58
2021/09/19 13:44:26;;;;;;;0.20;0.20;;;;;;;;;;5048763;28;20036;-58
2021/09/19 13:46:54;;;;;;;0.17;0.17;;;;;;;;;;5064518;28;20422;-59
2021/09/19 13:49:23;;;;;;;0.68;0.30;;;;;;;;;;5065305;28;20060;-58
2021/09/19 13:51:50;;;;;;;0.20;0.20;;;;;;;;;;5067896;28;20364;-58
2021/09/19 13:54:16;;;;;;;0.40;0.38;;;;;;;;;;5066245;28;20035;-58
2021/09/19 13:56:47;;;;;;;0.30;0.30;;;;;;;;;;5069377;28;20426;-57
2021/09/19 13:59:13;;;;;;;0.32;0.32;;;;;;;;;;5066856;28;20438;-58
2021/09/19 14:01:39;;;;;;;0.30;0.30;;;;;;;;;;5068445;28;20511;-58
2021/09/19 14:04:05;;;;;;;0.30;0.30;;;;;;;;;;5067007;28;20032;-58
2021/09/19 14:06:31;;;;;;;0.38;0.30;;;;;;;;;;5067724;28;20035;-58
2021/09/19 14:08:58;;;;;;;0.30;0.30;;;;;;;;;;5062778;28;20487;-58
2021/09/19 14:11:24;;;;;;;0.45;0.28;;;;;;;;;;5056300;28;20025;-58
2021/09/19 14:13:50;;;;;;;0.63;0.30;;;;;;;;;;5068887;28;20050;-58
2021/09/19 14:16:16;;;;;;;0.20;0.20;;;;;;;;;;5087681;28;20024;-58
2021/09/19 14:18:42;;;;;;;0.50;0.30;;;;;;;;;;5075062;28;20105;-58
2021/09/19 14:21:08;;;;;;;0.20;0.20;;;;;;;;;;5072354;28;20449;-58
2021/09/19 14:23:34;;;;;;;0.20;0.20;;;;;;;;;;5074479;28;20415;-58
2021/09/19 14:26:00;;;;;;;0.55;0.30;;;;;;;;;;5065658;28;20024;-58
2021/09/19 14:28:26;;;;;;;0.25;0.25;;;;;;;;;;5065285;28;20059;-58
2021/09/19 14:30:52;;;;;;;0.50;0.50;;;;;;;;;;5066164;28;20056;-58
2021/09/19 14:33:18;;;;;;;0.30;0.30;;;;;;;;;;5053977;28;20060;-59
2021/09/19 14:35:44;;;;;;;0.45;0.35;;;;;;;;;;5081146;28;20465;-58
2021/09/19 14:38:10;;;;;;;0.20;0.20;;;;;;;;;;5065673;28;20032;-58
2021/09/19 14:40:36;;;;;;;0.30;0.30;;;;;;;;;;5064309;28;20027;-58
2021/09/19 14:43:03;;;;;;;0.20;0.20;;;;;;;;;;5064163;28;20106;-58